Time;durP1;ratioP1;P1;durP2;ratioP2;P2;SDS_P1;SDS_P2;PMS_P1;PMS_P2;Temp;Humidity;BMP_temperature;BMP_pressure;BME280_temperature;BME280_humidity;BME280_pressure;Samples;Min_cycle;Max_cycle;Signal;HPM_P1;HPM_P2
2024/02/04 00:01:05;;;;;;;;;;;;;;;;;;5017766;28;19965;-54
2024/02/04 00:03:31;;;;;;;;;;;;;;;;;;5018655;28;20166;-53
2024/02/04 00:05:57;;;;;;;;;;;;;;;;;;5019232;28;19949;-53
2024/02/04 00:08:22;;;;;;;;;;;;;;;;;;5020696;28;19967;-53
2024/02/04 00:10:48;;;;;;;;;;;;;;;;;;5015677;28;19960;-53
2024/02/04 00:13:14;;;;;;;;;;;;;;;;;;5019740;28;19982;-54
2024/02/04 00:15:40;;;;;;;;;;;;;;;;;;5016865;28;20058;-54
2024/02/04 00:18:06;;;;;;;;;;;;;;;;;;5019677;28;19960;-54
2024/02/04 00:20:32;;;;;;;;;;;;;;;;;;5015025;28;20040;-53
2024/02/04 00:22:58;;;;;;;;;;;;;;;;;;5013223;28;19960;-54
2024/02/04 00:25:24;;;;;;;;;;;;;;;;;;5018600;28;20373;-54
2024/02/04 00:27:50;;;;;;;;;;;;;;;;;;5016266;28;19905;-54
2024/02/04 00:30:16;;;;;;;;;;;;;;;;;;5019495;28;19971;-54
2024/02/04 00:32:42;;;;;;;;;;;;;;;;;;5018447;28;20395;-54
2024/02/04 00:35:08;;;;;;;;;;;;;;;;;;5016088;28;19928;-54
2024/02/04 00:37:34;;;;;;;;;;;;;;;;;;5015160;28;20373;-54
2024/02/04 00:40:00;;;;;;;;;;;;;;;;;;5015535;28;19967;-54
2024/02/04 00:42:26;;;;;;;;;;;;;;;;;;5010609;28;19944;-54
2024/02/04 00:44:52;;;;;;;;;;;;;;;;;;5011378;28;19964;-53
2024/02/04 00:47:18;;;;;;;;;;;;;;;;;;5016483;28;19933;-54
2024/02/04 00:49:44;;;;;;;;;;;;;;;;;;5015926;28;19957;-54
2024/02/04 00:52:10;;;;;;;;;;;;;;;;;;5012586;28;20003;-53
2024/02/04 00:54:36;;;;;;;;;;;;;;;;;;5019902;28;20381;-53
2024/02/04 00:57:01;;;;;;;;;;;;;;;;;;5024816;28;19952;-54
2024/02/04 00:59:27;;;;;;;;;;;;;;;;;;5017623;28;20401;-54
2024/02/04 01:01:55;;;;;;;;;;;;;;;;;;5019236;28;19947;-54
2024/02/04 01:04:23;;;;;;;;;;;;;;;;;;5023020;28;19920;-54
2024/02/04 01:06:48;;;;;;;;;;;;;;;;;;5017854;28;19905;-54
2024/02/04 01:09:14;;;;;;;;;;;;;;;;;;5021840;28;19940;-54
2024/02/04 01:11:40;;;;;;;;;;;;;;;;;;5021256;28;19994;-54
2024/02/04 01:14:06;;;;;;;;;;;;;;;;;;5017832;28;19913;-54
2024/02/04 01:16:32;;;;;;;;;;;;;;;;;;5018411;28;19941;-54
2024/02/04 01:18:58;;;;;;;;;;;;;;;;;;5018328;28;19917;-54
2024/02/04 01:21:25;;;;;;;;;;;;;;;;;;5010513;28;19913;-54
2024/02/04 01:23:51;;;;;;;;;;;;;;;;;;5016784;28;19916;-54
2024/02/04 01:26:17;;;;;;;;;;;;;;;;;;5017967;28;19932;-54
2024/02/04 01:28:43;;;;;;;;;;;;;;;;;;5011500;28;20004;-54
2024/02/04 01:31:09;;;;;;;;;;;;;;;;;;5012495;28;19949;-54
2024/02/04 01:33:35;;;;;;;;;;;;;;;;;;5017131;28;19909;-54
2024/02/04 01:36:01;;;;;;;;;;;;;;;;;;5015791;28;19945;-53
2024/02/04 01:38:27;;;;;;;;;;;;;;;;;;5011978;28;19949;-53
2024/02/04 01:40:53;;;;;;;;;;;;;;;;;;5011439;28;19948;-54
2024/02/04 01:43:21;;;;;;;;;;;;;;;;;;5016905;28;19909;-53
2024/02/04 01:45:47;;;;;;;;;;;;;;;;;;5016853;28;19980;-54
2024/02/04 01:48:15;;;;;;;;;;;;;;;;;;5016884;28;20324;-54
2024/02/04 01:50:41;;;;;;;;;;;;;;;;;;5024470;28;20418;-54
2024/02/04 01:53:07;;;;;;;;;;;;;;;;;;5023467;28;19910;-54
2024/02/04 01:55:33;;;;;;;;;;;;;;;;;;5017632;28;19915;-54
2024/02/04 01:57:59;;;;;;;;;;;;;;;;;;5013460;28;19955;-54
2024/02/04 02:00:25;;;;;;;;;;;;;;;;;;5019622;28;19948;-54
2024/02/04 02:02:51;;;;;;;;;;;;;;;;;;5010212;28;19991;-54
2024/02/04 02:05:16;;;;;;;;;;;;;;;;;;5025038;28;20329;-53
2024/02/04 02:07:45;;;;;;;;;;;;;;;;;;5022792;28;19948;-54
2024/02/04 02:10:12;;;;;;;;;;;;;;;;;;5016588;28;20018;-53
2024/02/04 02:12:38;;;;;;;;;;;;;;;;;;5016103;28;19909;-60
2024/02/04 02:15:04;;;;;;;;;;;;;;;;;;5013812;28;20330;-57
2024/02/04 02:17:30;;;;;;;;;;;;;;;;;;5018537;28;19998;-56
2024/02/04 02:19:56;;;;;;;;;;;;;;;;;;5013157;28;20378;-60
2024/02/04 02:22:22;;;;;;;;;;;;;;;;;;5009475;28;19913;-60
2024/02/04 02:24:47;;;;;;;;;;;;;;;;;;5019756;28;19913;-59
2024/02/04 02:27:14;;;;;;;;;;;;;;;;;;5021083;28;20385;-58
2024/02/04 02:29:40;;;;;;;;;;;;;;;;;;5016334;28;19944;-59
2024/02/04 02:32:05;;;;;;;;;;;;;;;;;;5018797;28;19998;-60
2024/02/04 02:34:31;;;;;;;;;;;;;;;;;;5011996;28;19957;-58
2024/02/04 02:36:57;;;;;;;;;;;;;;;;;;5016765;28;19992;-59
2024/02/04 02:39:23;;;;;;;;;;;;;;;;;;5021769;28;20412;-59
2024/02/04 02:41:50;;;;;;;;;;;;;;;;;;5020945;28;20058;-60
2024/02/04 02:44:16;;;;;;;;;;;;;;;;;;5015329;28;19920;-58
2024/02/04 02:46:42;;;;;;;;;;;;;;;;;;5017652;28;20364;-58
2024/02/04 02:49:08;;;;;;;;;;;;;;;;;;5023560;28;19929;-60
2024/02/04 02:51:34;;;;;;;;;;;;;;;;;;5017335;28;19909;-59
2024/02/04 02:54:00;;;;;;;;;;;;;;;;;;5021465;28;20051;-55
2024/02/04 02:56:26;;;;;;;;;;;;;;;;;;5013686;28;19956;-57
2024/02/04 02:58:52;;;;;;;;;;;;;;;;;;5018795;28;20349;-59
2024/02/04 03:01:18;;;;;;;;;;;;;;;;;;5019344;28;19959;-59
2024/02/04 03:03:44;;;;;;;;;;;;;;;;;;5012473;28;19945;-58
2024/02/04 03:06:10;;;;;;;;;;;;;;;;;;5020378;28;19941;-58
2024/02/04 03:08:36;;;;;;;;;;;;;;;;;;5020795;28;20038;-59
2024/02/04 03:11:02;;;;;;;;;;;;;;;;;;5017320;28;20380;-58
2024/02/04 03:13:28;;;;;;;;;;;;;;;;;;5023706;28;20058;-60
2024/02/04 03:15:54;;;;;;;;;;;;;;;;;;5020971;28;20086;-59
2024/02/04 03:18:19;;;;;;;;;;;;;;;;;;5022342;28;19944;-59
2024/02/04 03:20:45;;;;;;;;;;;;;;;;;;5021726;28;19994;-58
2024/02/04 03:23:11;;;;;;;;;;;;;;;;;;5018090;28;20703;-53
2024/02/04 03:25:37;;;;;;;;;;;;;;;;;;5014895;28;20063;-54
2024/02/04 03:28:03;;;;;;;;;;;;;;;;;;5018367;28;19955;-52
2024/02/04 03:30:29;;;;;;;;;;;;;;;;;;5020301;28;19948;-53
2024/02/04 03:32:55;;;;;;;;;;;;;;;;;;5022520;28;19944;-52
2024/02/04 03:35:21;;;;;;;;;;;;;;;;;;5024494;28;20431;-52
2024/02/04 03:37:47;;;;;;;;;;;;;;;;;;5025327;28;19949;-52
2024/02/04 03:40:13;;;;;;;;;;;;;;;;;;5021092;28;19952;-52
2024/02/04 03:42:40;;;;;;;;;;;;;;;;;;5024649;28;19982;-52
2024/02/04 03:45:06;;;;;;;;;;;;;;;;;;5020775;28;19996;-51
2024/02/04 03:47:32;;;;;;;;;;;;;;;;;;5020071;28;19979;-52
2024/02/04 03:49:58;;;;;;;;;;;;;;;;;;5024901;28;19919;-52
2024/02/04 03:52:24;;;;;;;;;;;;;;;;;;5020428;28;19919;-52
2024/02/04 03:54:50;;;;;;;;;;;;;;;;;;5022282;28;20008;-51
2024/02/04 03:57:16;;;;;;;;;;;;;;;;;;5020311;28;20004;-52
2024/02/04 03:59:41;;;;;;;;;;;;;;;;;;5019613;28;20626;-52
2024/02/04 04:02:07;;;;;;;;;;;;;;;;;;5022429;28;20938;-51
2024/02/04 04:04:33;;;;;;;;;;;;;;;;;;5021401;28;19968;-53
2024/02/04 04:06:59;;;;;;;;;;;;;;;;;;5023945;28;20040;-52
2024/02/04 04:09:25;;;;;;;;;;;;;;;;;;5022519;28;19964;-52
2024/02/04 04:11:51;;;;;;;;;;;;;;;;;;5022619;28;19921;-52
2024/02/04 04:14:17;;;;;;;;;;;;;;;;;;5021433;28;19913;-52
2024/02/04 04:16:43;;;;;;;;;;;;;;;;;;5020939;28;20067;-53
2024/02/04 04:19:09;;;;;;;;;;;;;;;;;;5025182;28;20056;-52
2024/02/04 04:21:37;;;;;;;;;;;;;;;;;;5021283;28;19960;-52
2024/02/04 04:24:03;;;;;;;;;;;;;;;;;;5021476;28;20341;-54
2024/02/04 04:26:29;;;;;;;;;;;;;;;;;;5023895;28;19968;-51
2024/02/04 04:28:55;;;;;;;;;;;;;;;;;;5019197;28;20000;-52
2024/02/04 04:31:21;;;;;;;;;;;;;;;;;;5020659;28;20398;-52
2024/02/04 04:33:47;;;;;;;;;;;;;;;;;;5026489;28;20013;-56
2024/02/04 04:36:12;;;;;;;;;;;;;;;;;;5018570;28;19957;-60
2024/02/04 04:38:38;;;;;;;;;;;;;;;;;;5021745;28;20010;-59
2024/02/04 04:41:04;;;;;;;;;;;;;;;;;;5017936;28;19960;-59
2024/02/04 04:43:30;;;;;;;;;;;;;;;;;;5020432;28;20043;-59
2024/02/04 04:45:56;;;;;;;;;;;;;;;;;;5017138;28;19944;-57
2024/02/04 04:48:22;;;;;;;;;;;;;;;;;;5022891;28;20036;-59
2024/02/04 04:50:48;;;;;;;;;;;;;;;;;;5022415;28;20344;-61
2024/02/04 04:53:14;;;;;;;;;;;;;;;;;;5023603;28;19952;-57
2024/02/04 04:55:40;;;;;;;;;;;;;;;;;;5020809;28;19956;-59
2024/02/04 04:58:06;;;;;;;;;;;;;;;;;;5021317;28;20044;-57
2024/02/04 05:00:32;;;;;;;;;;;;;;;;;;5016643;28;19960;-58
2024/02/04 05:02:58;;;;;;;;;;;;;;;;;;5022484;28;20327;-60
2024/02/04 05:05:24;;;;;;;;;;;;;;;;;;5014691;28;19991;-60
2024/02/04 05:07:49;;;;;;;;;;;;;;;;;;5016995;28;19957;-60
2024/02/04 05:10:15;;;;;;;;;;;;;;;;;;5014343;28;19965;-60
2024/02/04 05:12:41;;;;;;;;;;;;;;;;;;5014833;28;19956;-59
2024/02/04 05:15:07;;;;;;;;;;;;;;;;;;5013805;28;19956;-60
2024/02/04 05:17:33;;;;;;;;;;;;;;;;;;5012588;28;19976;-57
2024/02/04 05:19:59;;;;;;;;;;;;;;;;;;5021105;28;19936;-58
2024/02/04 05:22:25;;;;;;;;;;;;;;;;;;5022321;28;19952;-60
2024/02/04 05:24:51;;;;;;;;;;;;;;;;;;5022765;28;19949;-60
2024/02/04 05:27:17;;;;;;;;;;;;;;;;;;5018537;28;19952;-61
2024/02/04 05:29:43;;;;;;;;;;;;;;;;;;5021125;28;19983;-62
2024/02/04 05:32:09;;;;;;;;;;;;;;;;;;5018292;28;20031;-62
2024/02/04 05:34:35;;;;;;;;;;;;;;;;;;5011012;28;19925;-60
2024/02/04 05:37:01;;;;;;;;;;;;;;;;;;5016358;28;20485;-59
2024/02/04 05:39:27;;;;;;;;;;;;;;;;;;5020021;28;19919;-57
2024/02/04 05:41:53;;;;;;;;;;;;;;;;;;5019613;28;19947;-58
2024/02/04 05:44:19;;;;;;;;;;;;;;;;;;5012661;28;20357;-54
2024/02/04 05:46:45;;;;;;;;;;;;;;;;;;5020187;28;20400;-55
2024/02/04 05:49:11;;;;;;;;;;;;;;;;;;5021481;28;20060;-55
2024/02/04 05:51:37;;;;;;;;;;;;;;;;;;5019661;28;20048;-55
2024/02/04 05:54:03;;;;;;;;;;;;;;;;;;5021446;28;19941;-55
2024/02/04 05:56:29;;;;;;;;;;;;;;;;;;5015711;28;20416;-55
2024/02/04 05:58:55;;;;;;;;;;;;;;;;;;5016861;28;19967;-55
2024/02/04 06:01:21;;;;;;;;;;;;;;;;;;5018888;28;20052;-56
2024/02/04 06:03:47;;;;;;;;;;;;;;;;;;5022656;28;19948;-55
2024/02/04 06:06:13;;;;;;;;;;;;;;;;;;5018876;28;19959;-55
2024/02/04 06:08:39;;;;;;;;;;;;;;;;;;5022280;28;19953;-55
2024/02/04 06:11:04;;;;;;;;;;;;;;;;;;5018151;28;20348;-56
2024/02/04 06:13:30;;;;;;;;;;;;;;;;;;5018236;28;19957;-55
2024/02/04 06:15:56;;;;;;;;;;;;;;;;;;5016020;28;19968;-55
2024/02/04 06:18:22;;;;;;;;;;;;;;;;;;5010878;28;19983;-55
2024/02/04 06:20:48;;;;;;;;;;;;;;;;;;5015860;28;19964;-55
2024/02/04 06:23:14;;;;;;;;;;;;;;;;;;5013683;28;20364;-55
2024/02/04 06:25:40;;;;;;;;;;;;;;;;;;5018204;28;20026;-55
2024/02/04 06:28:07;;;;;;;;;;;;;;;;;;5016640;28;19956;-55
2024/02/04 06:30:33;;;;;;;;;;;;;;;;;;5015063;28;19918;-56
2024/02/04 06:32:59;;;;;;;;;;;;;;;;;;5014140;28;19914;-55
2024/02/04 06:35:25;;;;;;;;;;;;;;;;;;5015309;28;20263;-55
2024/02/04 06:37:51;;;;;;;;;;;;;;;;;;5012978;28;19917;-55
2024/02/04 06:40:17;;;;;;;;;;;;;;;;;;5014790;28;20293;-55
2024/02/04 06:42:44;;;;;;;;;;;;;;;;;;5017600;28;19924;-55
2024/02/04 06:45:10;;;;;;;;;;;;;;;;;;5012690;28;19960;-55
2024/02/04 06:47:36;;;;;;;;;;;;;;;;;;5012213;28;20006;-55
2024/02/04 06:50:05;;;;;;;;;;;;;;;;;;5018501;28;19932;-55
2024/02/04 06:52:31;;;;;;;;;;;;;;;;;;5013247;28;19921;-55
2024/02/04 06:54:57;;;;;;;;;;;;;;;;;;5017932;28;20246;-52
2024/02/04 06:57:23;;;;;;;;;;;;;;;;;;5019530;28;19924;-53
2024/02/04 06:59:49;;;;;;;;;;;;;;;;;;5013443;28;19949;-53
2024/02/04 07:02:15;;;;;;;;;;;;;;;;;;5019572;28;19956;-53
2024/02/04 07:04:41;;;;;;;;;;;;;;;;;;5016610;28;19956;-52
2024/02/04 07:07:07;;;;;;;;;;;;;;;;;;5020278;28;19983;-52
2024/02/04 07:09:33;;;;;;;;;;;;;;;;;;5020930;28;20369;-51
2024/02/04 07:11:59;;;;;;;;;;;;;;;;;;5024270;28;19923;-51
2024/02/04 07:14:24;;;;;;;;;;;;;;;;;;5021551;28;19990;-54
2024/02/04 07:16:50;;;;;;;;;;;;;;;;;;5016935;28;19992;-53
2024/02/04 07:19:16;;;;;;;;;;;;;;;;;;5018533;28;19987;-54
2024/02/04 07:21:43;;;;;;;;;;;;;;;;;;5022061;28;20420;-54
2024/02/04 07:24:09;;;;;;;;;;;;;;;;;;5020105;28;20266;-54
2024/02/04 07:26:35;;;;;;;;;;;;;;;;;;5018101;28;20059;-54
2024/02/04 07:29:01;;;;;;;;;;;;;;;;;;5017307;28;19972;-54
2024/02/04 07:31:27;;;;;;;;;;;;;;;;;;5013938;28;20330;-54
2024/02/04 07:33:53;;;;;;;;;;;;;;;;;;5020128;28;20008;-54
2024/02/04 07:36:19;;;;;;;;;;;;;;;;;;5020395;28;20023;-54
2024/02/04 07:38:45;;;;;;;;;;;;;;;;;;5017838;28;19953;-54
2024/02/04 07:41:11;;;;;;;;;;;;;;;;;;5014584;28;19952;-54
2024/02/04 07:43:37;;;;;;;;;;;;;;;;;;5014562;28;19991;-54
2024/02/04 07:46:03;;;;;;;;;;;;;;;;;;5020498;28;19983;-54
2024/02/04 07:48:29;;;;;;;;;;;;;;;;;;5022885;28;19982;-54
2024/02/04 07:50:55;;;;;;;;;;;;;;;;;;5022229;28;19959;-54
2024/02/04 07:53:22;;;;;;;;;;;;;;;;;;5021927;28;19953;-53
2024/02/04 07:55:49;;;;;;;;;;;;;;;;;;5020739;28;20306;-54
2024/02/04 07:58:15;;;;;;;;;;;;;;;;;;5024881;28;19920;-54
2024/02/04 08:00:41;;;;;;;;;;;;;;;;;;5022145;28;19960;-54
2024/02/04 08:03:07;;;;;;;;;;;;;;;;;;5018817;28;19916;-55
2024/02/04 08:05:35;;;;;;;;;;;;;;;;;;5021400;28;20023;-54
2024/02/04 08:08:01;;;;;;;;;;;;;;;;;;5017689;28;19998;-54
2024/02/04 08:10:27;;;;;;;;;;;;;;;;;;5019101;28;20000;-54
2024/02/04 08:12:53;;;;;;;;;;;;;;;;;;5021983;28;20455;-54
2024/02/04 08:15:19;;;;;;;;;;;;;;;;;;5020743;28;19918;-55
2024/02/04 08:17:45;;;;;;;;;;;;;;;;;;5020706;28;20384;-55
2024/02/04 08:20:11;;;;;;;;;;;;;;;;;;5017156;28;19964;-55
2024/02/04 08:22:37;;;;;;;;;;;;;;;;;;5018414;28;19968;-55
2024/02/04 08:25:03;;;;;;;;;;;;;;;;;;5014065;28;20274;-55
2024/02/04 08:27:29;;;;;;;;;;;;;;;;;;5014699;28;19965;-55
2024/02/04 08:29:55;;;;;;;;;;;;;;;;;;5017744;28;19980;-55
2024/02/04 08:32:21;;;;;;;;;;;;;;;;;;5017191;28;19921;-55
2024/02/04 08:34:47;;;;;;;;;;;;;;;;;;5021642;28;20418;-55
2024/02/04 08:37:13;;;;;;;;;;;;;;;;;;5024316;28;19956;-55
2024/02/04 08:39:39;;;;;;;;;;;;;;;;;;5022253;28;20316;-55
2024/02/04 08:42:05;;;;;;;;;;;;;;;;;;5019979;28;19995;-55
2024/02/04 08:44:31;;;;;;;;;;;;;;;;;;5017728;28;19923;-55
2024/02/04 08:46:57;;;;;;;;;;;;;;;;;;5022540;28;19996;-55
2024/02/04 08:49:23;;;;;;;;;;;;;;;;;;5021156;28;19972;-54
2024/02/04 08:51:49;;;;;;;;;;;;;;;;;;5018844;28;19929;-55
2024/02/04 08:54:17;;;;;;;;;;;;;;;;;;5017831;28;19963;-55
2024/02/04 08:56:43;;;;;;;;;;;;;;;;;;5017426;28;19921;-55
2024/02/04 08:59:09;;;;;;;;;;;;;;;;;;5022109;28;20017;-55
2024/02/04 09:01:35;;;;;;;;;;;;;;;;;;5020523;28;20066;-55
2024/02/04 09:04:01;;;;;;;;;;;;;;;;;;5019208;28;20008;-55
2024/02/04 09:06:27;;;;;;;;;;;;;;;;;;5022095;28;20055;-55
2024/02/04 09:08:53;;;;;;;;;;;;;;;;;;5017432;28;20011;-55
2024/02/04 09:11:20;;;;;;;;;;;;;;;;;;5021388;28;20277;-55
2024/02/04 09:13:46;;;;;;;;;;;;;;;;;;5019755;28;19987;-55
2024/02/04 09:16:12;;;;;;;;;;;;;;;;;;5021629;28;19953;-54
2024/02/04 09:18:38;;;;;;;;;;;;;;;;;;5023609;28;20424;-54
2024/02/04 09:21:04;;;;;;;;;;;;;;;;;;5013152;28;20381;-54
2024/02/04 09:23:30;;;;;;;;;;;;;;;;;;5020161;28;19917;-55
2024/02/04 09:25:56;;;;;;;;;;;;;;;;;;5015039;28;20022;-54
2024/02/04 09:28:22;;;;;;;;;;;;;;;;;;5018609;28;19956;-55
2024/02/04 09:30:48;;;;;;;;;;;;;;;;;;5021660;28;19948;-53
2024/02/04 09:33:14;;;;;;;;;;;;;;;;;;5028019;28;20491;-54
2024/02/04 09:35:40;;;;;;;;;;;;;;;;;;5020744;28;19960;-53
2024/02/04 09:38:06;;;;;;;;;;;;;;;;;;5023011;28;19949;-54
2024/02/04 09:40:32;;;;;;;;;;;;;;;;;;5025384;28;19960;-54
2024/02/04 09:42:58;;;;;;;;;;;;;;;;;;5025478;28;19924;-54
2024/02/04 09:45:24;;;;;;;;;;;;;;;;;;5027482;28;20393;-54
2024/02/04 09:47:50;;;;;;;;;;;;;;;;;;5025872;28;19939;-54
2024/02/04 09:50:16;;;;;;;;;;;;;;;;;;5011306;28;20258;-54
2024/02/04 09:52:42;;;;;;;;;;;;;;;;;;5021199;28;20342;-54
2024/02/04 09:55:07;;;;;;;;;;;;;;;;;;5015765;28;20055;-54
2024/02/04 09:57:33;;;;;;;;;;;;;;;;;;5013568;28;20020;-53
2024/02/04 09:59:59;;;;;;;;;;;;;;;;;;5015411;28;20007;-54
2024/02/04 10:02:25;;;;;;;;;;;;;;;;;;5023727;28;19975;-54
2024/02/04 10:04:51;;;;;;;;;;;;;;;;;;5021561;28;20377;-54
2024/02/04 10:07:18;;;;;;;;;;;;;;;;;;5027749;28;20369;-54
2024/02/04 10:09:44;;;;;;;;;;;;;;;;;;5023141;28;19946;-53
2024/02/04 10:12:10;;;;;;;;;;;;;;;;;;5027985;28;20337;-54
2024/02/04 10:14:36;;;;;;;;;;;;;;;;;;5022785;28;19921;-54
2024/02/04 10:17:02;;;;;;;;;;;;;;;;;;5022611;28;19932;-54
2024/02/04 10:19:27;;;;;;;;;;;;;;;;;;5022467;28;19948;-53
2024/02/04 10:21:53;;;;;;;;;;;;;;;;;;5019610;28;20408;-54
2024/02/04 10:24:19;;;;;;;;;;;;;;;;;;5017084;28;20022;-60
2024/02/04 10:26:46;;;;;;;;;;;;;;;;;;5025730;28;20216;-58
2024/02/04 10:29:12;;;;;;;;;;;;;;;;;;5019566;28;20060;-58
2024/02/04 10:31:38;;;;;;;;;;;;;;;;;;5020630;28;20390;-60
2024/02/04 10:34:04;;;;;;;;;;;;;;;;;;5026694;28;20325;-58
2024/02/04 10:36:30;;;;;;;;;;;;;;;;;;5025570;28;20571;-58
2024/02/04 10:38:56;;;;;;;;;;;;;;;;;;5020351;28;19959;-58
2024/02/04 10:41:22;;;;;;;;;;;;;;;;;;5024031;28;20000;-59
2024/02/04 10:43:48;;;;;;;;;;;;;;;;;;5021865;28;19964;-59
2024/02/04 10:46:14;;;;;;;;;;;;;;;;;;5014203;28;19960;-60
2024/02/04 10:48:42;;;;;;;;;;;;;;;;;;5025113;28;19996;-60
2024/02/04 10:51:08;;;;;;;;;;;;;;;;;;5024848;28;19920;-60
2024/02/04 10:53:34;;;;;;;;;;;;;;;;;;5023066;28;20523;-60
2024/02/04 10:56:01;;;;;;;;;;;;;;;;;;5026150;28;20326;-60
2024/02/04 10:58:27;;;;;;;;;;;;;;;;;;5026232;28;19956;-59
2024/02/04 11:00:53;;;;;;;;;;;;;;;;;;5024497;28;19921;-60
2024/02/04 11:03:19;;;;;;;;;;;;;;;;;;5018932;28;20354;-60
2024/02/04 11:05:45;;;;;;;;;;;;;;;;;;5021005;28;19913;-60
2024/02/04 11:08:11;;;;;;;;;;;;;;;;;;5018081;28;20464;-58
2024/02/04 11:10:37;;;;;;;;;;;;;;;;;;5017555;28;19971;-58
2024/02/04 11:13:03;;;;;;;;;;;;;;;;;;5022335;28;19937;-59
2024/02/04 11:15:29;;;;;;;;;;;;;;;;;;5011494;28;20297;-59
2024/02/04 11:17:55;;;;;;;;;;;;;;;;;;5018541;28;19917;-58
2024/02/04 11:20:21;;;;;;;;;;;;;;;;;;5021929;28;19967;-58
2024/02/04 11:22:47;;;;;;;;;;;;;;;;;;5017148;28;19959;-58
2024/02/04 11:25:13;;;;;;;;;;;;;;;;;;5018341;28;20368;-58
2024/02/04 11:27:39;;;;;;;;;;;;;;;;;;5023349;28;19913;-60
2024/02/04 11:30:04;;;;;;;;;;;;;;;;;;5023249;28;19987;-58
2024/02/04 11:32:30;;;;;;;;;;;;;;;;;;5016923;28;19956;-59
2024/02/04 11:35:00;;;;;;;;;;;;;;;;;;5013496;28;19975;-55
2024/02/04 11:37:27;;;;;;;;;;;;;;;;;;5013721;28;20008;-54
2024/02/04 11:39:53;;;;;;;;;;;;;;;;;;5008218;28;20009;-55
2024/02/04 11:42:20;;;;;;;;;;;;;;;;;;5021038;28;19996;-54
2024/02/04 11:44:46;;;;;;;;;;;;;;;;;;5015380;28;19936;-55
2024/02/04 11:47:12;;;;;;;;;;;;;;;;;;5024999;28;20647;-54
2024/02/04 11:49:38;;;;;;;;;;;;;;;;;;5020763;28;20007;-52
2024/02/04 11:52:03;;;;;;;;;;;;;;;;;;5014349;28;19945;-52
2024/02/04 11:54:29;;;;;;;;;;;;;;;;;;5009483;28;19980;-54
2024/02/04 11:56:57;;;;;;;;;;;;;;;;;;5021677;28;20364;-53
2024/02/04 11:59:23;;;;;;;;;;;;;;;;;;5021141;28;19921;-52
2024/02/04 12:01:49;;;;;;;;;;;;;;;;;;5018213;28;20390;-51
2024/02/04 12:04:15;;;;;;;;;;;;;;;;;;5025979;28;19916;-55
2024/02/04 12:06:41;;;;;;;;;;;;;;;;;;5014730;28;20028;-55
2024/02/04 12:09:07;;;;;;;;;;;;;;;;;;5013825;28;20008;-56
2024/02/04 12:11:33;;;;;;;;;;;;;;;;;;5014466;28;20695;-55
2024/02/04 12:13:59;;;;;;;;;;;;;;;;;;5028790;28;20356;-55
2024/02/04 12:16:25;;;;;;;;;;;;;;;;;;5028052;28;19948;-56
2024/02/04 12:18:51;;;;;;;;;;;;;;;;;;5030418;28;19940;-57
2024/02/04 12:21:16;;;;;;;;;;;;;;;;;;5022726;28;19940;-55
2024/02/04 12:23:42;;;;;;;;;;;;;;;;;;5028861;28;20040;-55
2024/02/04 12:26:08;;;;;;;;;;;;;;;;;;5026771;28;19952;-55
2024/02/04 12:28:34;;;;;;;;;;;;;;;;;;5022179;28;19968;-56
2024/02/04 12:31:00;;;;;;;;;;;;;;;;;;5027819;28;20002;-55
2024/02/04 12:33:26;;;;;;;;;;;;;;;;;;5030322;28;20047;-55
2024/02/04 12:35:52;;;;;;;;;;;;;;;;;;5027500;28;20006;-55
2024/02/04 12:38:18;;;;;;;;;;;;;;;;;;5021711;28;19982;-56
2024/02/04 12:40:44;;;;;;;;;;;;;;;;;;5027661;28;20373;-55
2024/02/04 12:43:10;;;;;;;;;;;;;;;;;;5028488;28;19955;-55
2024/02/04 12:45:36;;;;;;;;;;;;;;;;;;5025452;28;20364;-54
2024/02/04 12:48:02;;;;;;;;;;;;;;;;;;5028457;28;19928;-54
2024/02/04 12:50:28;;;;;;;;;;;;;;;;;;5027118;28;19920;-54
2024/02/04 12:52:54;;;;;;;;;;;;;;;;;;5026751;28;19979;-54
2024/02/04 12:55:20;;;;;;;;;;;;;;;;;;5026091;28;20035;-54
2024/02/04 12:57:46;;;;;;;;;;;;;;;;;;5027922;28;20313;-54
2024/02/04 13:00:12;;;;;;;;;;;;;;;;;;5026116;28;20024;-54
2024/02/04 13:02:39;;;;;;;;;;;;;;;;;;5030309;28;19968;-54
2024/02/04 13:05:05;;;;;;;;;;;;;;;;;;5027203;28;19921;-61
2024/02/04 13:07:31;;;;;;;;;;;;;;;;;;5029510;28;19917;-58
2024/02/04 13:09:57;;;;;;;;;;;;;;;;;;5027290;28;19968;-61
2024/02/04 13:12:23;;;;;;;;;;;;;;;;;;5028338;28;19956;-61
2024/02/04 13:14:48;;;;;;;;;;;;;;;;;;5033471;28;20073;-61
2024/02/04 13:17:15;;;;;;;;;;;;;;;;;;5029878;28;19952;-59
2024/02/04 13:19:42;;;;;;;;;;;;;;;;;;5027571;28;19913;-61
2024/02/04 13:22:10;;;;;;;;;;;;;;;;;;5029198;28;20341;-59
2024/02/04 13:24:36;;;;;;;;;;;;;;;;;;5029044;28;19909;-60
2024/02/04 13:27:07;;;;;;;;;;;;;;;;;;5028524;28;20439;-61
2024/02/04 13:29:33;;;;;;;;;;;;;;;;;;5027863;28;19924;-59
2024/02/04 13:31:59;;;;;;;;;;;;;;;;;;5019555;28;19917;-61
2024/02/04 13:34:25;;;;;;;;;;;;;;;;;;5017454;28;20020;-61
2024/02/04 13:36:51;;;;;;;;;;;;;;;;;;5034793;28;19983;-61
2024/02/04 13:39:17;;;;;;;;;;;;;;;;;;5024931;28;19955;-60
2024/02/04 13:41:43;;;;;;;;;;;;;;;;;;5027886;28;19947;-62
2024/02/04 13:44:09;;;;;;;;;;;;;;;;;;5025254;28;19960;-60
2024/02/04 13:46:35;;;;;;;;;;;;;;;;;;5029429;28;19932;-62
2024/02/04 13:49:02;;;;;;;;;;;;;;;;;;5021604;28;19968;-58
2024/02/04 13:51:28;;;;;;;;;;;;;;;;;;5019411;28;20005;-62
2024/02/04 13:53:54;;;;;;;;;;;;;;;;;;5033008;28;20357;-51
2024/02/04 13:56:20;;;;;;;;;;;;;;;;;;5035254;28;20018;-52
2024/02/04 13:58:46;;;;;;;;;;;;;;;;;;5038628;28;19995;-54
2024/02/04 14:01:13;;;;;;;;;;;;;;;;;;5031943;28;19992;-52
2024/02/04 14:03:39;;;;;;;;;;;;;;;;;;5046633;28;20081;-53
2024/02/04 14:06:05;;;;;;;;;;;;;;;;;;5028785;28;20104;-51
2024/02/04 14:08:30;;;;;;;;;;;;;;;;;;5026813;28;19960;-56
2024/02/04 14:10:56;;;;;;;;;;;;;;;;;;5026653;28;19944;-53
2024/02/04 14:13:22;;;;;;;;;;;;;;;;;;5027635;28;20021;-53
2024/02/04 14:15:48;;;;;;;;;;;;;;;;;;5026167;28;20015;-53
2024/02/04 14:18:14;;;;;;;;;;;;;;;;;;5020264;28;19924;-53
2024/02/04 14:20:40;;;;;;;;;;;;;;;;;;5027669;28;19992;-53
2024/02/04 14:23:06;;;;;;;;;;;;;;;;;;5028752;28;20039;-53
2024/02/04 14:25:32;;;;;;;;;;;;;;;;;;5026231;28;20408;-52
2024/02/04 14:27:58;;;;;;;;;;;;;;;;;;5027140;28;20004;-52
2024/02/04 14:30:24;;;;;;;;;;;;;;;;;;5026506;28;20008;-51
2024/02/04 14:32:50;;;;;;;;;;;;;;;;;;5024502;28;20429;-53
2024/02/04 14:35:16;;;;;;;;;;;;;;;;;;5027051;28;19932;-52
2024/02/04 14:37:42;;;;;;;;;;;;;;;;;;5027941;28;20003;-53
2024/02/04 14:40:08;;;;;;;;;;;;;;;;;;5025448;28;19917;-54
2024/02/04 14:42:34;;;;;;;;;;;;;;;;;;5028117;28;19936;-51
2024/02/04 14:45:00;;;;;;;;;;;;;;;;;;5029800;28;20262;-53
2024/02/04 14:47:27;;;;;;;;;;;;;;;;;;5027242;28;19975;-53
2024/02/04 14:49:53;;;;;;;;;;;;;;;;;;5033606;28;20335;-54
2024/02/04 14:52:19;;;;;;;;;;;;;;;;;;5020122;28;20035;-53
2024/02/04 14:54:44;;;;;;;;;;;;;;;;;;5025901;28;19964;-51
2024/02/04 14:57:10;;;;;;;;;;;;;;;;;;5028372;28;19956;-51
2024/02/04 14:59:39;;;;;;;;;;;;;;;;;;5029804;28;19952;-53
2024/02/04 15:02:06;;;;;;;;;;;;;;;;;;5021029;28;19925;-54
2024/02/04 15:04:32;;;;;;;;;;;;;;;;;;5020899;28;19913;-52
2024/02/04 15:06:58;;;;;;;;;;;;;;;;;;5028441;28;19920;-53
2024/02/04 15:09:24;;;;;;;;;;;;;;;;;;5024719;28;20473;-52
2024/02/04 15:11:50;;;;;;;;;;;;;;;;;;5019378;28;19948;-52
2024/02/04 15:14:16;;;;;;;;;;;;;;;;;;5029705;28;19968;-54
2024/02/04 15:16:42;;;;;;;;;;;;;;;;;;5027124;28;20292;-54
2024/02/04 15:19:08;;;;;;;;;;;;;;;;;;5026479;28;19999;-53
2024/02/04 15:21:34;;;;;;;;;;;;;;;;;;5026944;28;19957;-52
2024/02/04 15:24:04;;;;;;;;;;;;;;;;;;5026563;28;20337;-54
2024/02/04 15:26:30;;;;;;;;;;;;;;;;;;5027645;28;19921;-55
2024/02/04 15:28:56;;;;;;;;;;;;;;;;;;5024529;28;20270;-55
2024/02/04 15:31:22;;;;;;;;;;;;;;;;;;5027439;28;20351;-52
2024/02/04 15:33:48;;;;;;;;;;;;;;;;;;5030118;28;20389;-55
2024/02/04 15:36:13;;;;;;;;;;;;;;;;;;5031298;28;20380;-53
2024/02/04 15:38:39;;;;;;;;;;;;;;;;;;5026102;28;19976;-51
2024/02/04 15:41:05;;;;;;;;;;;;;;;;;;5019198;28;19976;-52
2024/02/04 15:43:31;;;;;;;;;;;;;;;;;;5030287;28;19944;-55
2024/02/04 15:45:57;;;;;;;;;;;;;;;;;;5025054;28;19975;-55
2024/02/04 15:48:23;;;;;;;;;;;;;;;;;;5036345;28;20403;-52
2024/02/04 15:50:49;;;;;;;;;;;;;;;;;;5032177;28;20015;-51
2024/02/04 15:53:15;;;;;;;;;;;;;;;;;;5031732;28;19960;-53
2024/02/04 15:55:41;;;;;;;;;;;;;;;;;;5030456;28;20087;-51
2024/02/04 15:58:07;;;;;;;;;;;;;;;;;;5030673;28;19995;-52
2024/02/04 16:00:33;;;;;;;;;;;;;;;;;;5022604;28;20364;-55
2024/02/04 16:02:59;;;;;;;;;;;;;;;;;;5023976;28;20412;-54
2024/02/04 16:05:25;;;;;;;;;;;;;;;;;;5026534;28;19951;-53
2024/02/04 16:07:50;;;;;;;;;;;;;;;;;;5028984;28;19917;-54
2024/02/04 16:10:17;;;;;;;;;;;;;;;;;;5028117;28;20336;-54
2024/02/04 16:12:43;;;;;;;;;;;;;;;;;;5022321;28;20009;-55
2024/02/04 16:15:09;;;;;;;;;;;;;;;;;;5028769;28;20383;-54
2024/02/04 16:17:35;;;;;;;;;;;;;;;;;;5033590;28;19944;-54
2024/02/04 16:20:02;;;;;;;;;;;;;;;;;;5031575;28;19968;-54
2024/02/04 16:22:29;;;;;;;;;;;;;;;;;;5029884;28;20024;-55
2024/02/04 16:24:55;;;;;;;;;;;;;;;;;;5028700;28;20412;-54
2024/02/04 16:27:21;;;;;;;;;;;;;;;;;;5029704;28;20015;-53
2024/02/04 16:29:47;;;;;;;;;;;;;;;;;;5033192;28;19944;-53
2024/02/04 16:32:14;;;;;;;;;;;;;;;;;;5027328;28;20214;-53
2024/02/04 16:34:39;;;;;;;;;;;;;;;;;;5025101;28;19936;-57
2024/02/04 16:37:08;;;;;;;;;;;;;;;;;;5015091;28;20385;-52